createdAt,value
2023-05-22T00:02:08.017Z,10.10
2023-05-22T00:04:34.730Z,9.77
2023-05-22T00:07:01.478Z,10.93
2023-05-22T00:09:28.117Z,9.93
2023-05-22T00:11:54.813Z,10.15
2023-05-22T00:14:21.411Z,9.65
2023-05-22T00:16:48.396Z,9.95
2023-05-22T00:19:16.561Z,10.45
2023-05-22T00:21:44.152Z,9.50
2023-05-22T00:24:10.934Z,10.20
2023-05-22T00:26:37.717Z,9.90
2023-05-22T00:29:05.700Z,9.80
2023-05-22T00:31:32.468Z,9.80
2023-05-22T00:33:59.549Z,9.88
2023-05-22T00:36:26.247Z,9.35
2023-05-22T00:38:52.990Z,9.45
2023-05-22T00:41:19.794Z,9.55
2023-05-22T00:43:47.636Z,9.15
2023-05-22T00:46:14.403Z,9.50
2023-05-22T00:48:41.158Z,10.13
2023-05-22T00:51:08.626Z,9.60
2023-05-22T00:53:36.253Z,9.15
2023-05-22T00:56:03.543Z,8.90
2023-05-22T00:58:30.516Z,9.05
2023-05-22T01:01:02.273Z,8.88
2023-05-22T01:03:29.825Z,9.38
2023-05-22T01:05:56.549Z,9.85
2023-05-22T01:08:23.408Z,9.43
2023-05-22T01:11:05.296Z,9.23
2023-05-22T01:13:53.697Z,9.50
2023-05-22T01:16:46.754Z,9.20
2023-05-22T01:19:34.930Z,8.85
2023-05-22T01:22:49.900Z,9.25
2023-05-22T01:25:28.444Z,8.35
2023-05-22T01:28:28.924Z,8.88
2023-05-22T01:31:10.972Z,8.50
2023-05-22T01:33:46.218Z,8.77
2023-05-22T01:36:22.408Z,8.80
2023-05-22T01:38:51.189Z,9.32
2023-05-22T01:41:18.609Z,9.07
2023-05-22T01:43:46.046Z,9.05
2023-05-22T01:46:12.993Z,9.15
2023-05-22T01:48:39.648Z,9.57
2023-05-22T01:51:51.334Z,9.30
2023-05-22T01:54:50.267Z,9.38
2023-05-22T01:57:35.828Z,9.75
2023-05-22T02:00:15.588Z,8.98
2023-05-22T02:03:13.677Z,9.43
2023-05-22T02:05:41.559Z,9.82
2023-05-22T02:08:08.818Z,8.57
2023-05-22T02:10:36.790Z,8.80
2023-05-22T02:13:04.257Z,8.30
2023-05-22T02:15:31.094Z,9.27
2023-05-22T02:18:00.215Z,8.93
2023-05-22T02:20:26.922Z,9.50
2023-05-22T02:22:53.567Z,8.90
2023-05-22T02:25:20.464Z,9.45
2023-05-22T02:27:49.456Z,8.85
2023-05-22T02:30:16.416Z,9.70
2023-05-22T02:32:43.300Z,8.82
2023-05-22T02:35:10.291Z,9.10
2023-05-22T02:37:37.801Z,8.95
2023-05-22T02:40:06.230Z,9.90
2023-05-22T02:42:33.039Z,9.10
2023-05-22T02:44:59.877Z,9.02
2023-05-22T02:47:26.979Z,8.57
2023-05-22T02:49:53.986Z,9.20
2023-05-22T02:52:20.900Z,9.43
2023-05-22T02:54:47.513Z,9.10
2023-05-22T02:57:14.168Z,9.45
2023-05-22T02:59:40.864Z,9.25
2023-05-22T03:02:07.949Z,8.68
2023-05-22T03:04:38.300Z,9.23
2023-05-22T03:07:07.196Z,8.57
2023-05-22T03:09:33.977Z,8.95
2023-05-22T03:12:00.867Z,9.13
2023-05-22T03:14:29.029Z,8.43
2023-05-22T03:16:55.984Z,9.55
2023-05-22T03:19:22.864Z,8.65
2023-05-22T03:21:49.972Z,9.13
2023-05-22T03:24:16.872Z,8.68
2023-05-22T03:26:43.854Z,8.65
2023-05-22T03:29:10.719Z,8.55
2023-05-22T03:31:37.383Z,8.55
2023-05-22T03:34:05.666Z,8.55
2023-05-22T03:36:35.556Z,8.50
2023-05-22T03:39:05.459Z,8.85
2023-05-22T03:41:32.160Z,9.15
2023-05-22T03:43:59.132Z,9.02
2023-05-22T03:46:26.377Z,9.18
2023-05-22T03:48:53.270Z,8.98
2023-05-22T03:51:20.514Z,8.60
2023-05-22T03:53:47.317Z,9.65
2023-05-22T03:56:14.239Z,8.65
2023-05-22T03:58:40.841Z,9.25
2023-05-22T04:01:09.854Z,9.13
2023-05-22T04:03:37.687Z,8.57
2023-05-22T04:06:05.617Z,10.05
2023-05-22T04:08:32.429Z,9.77
2023-05-22T04:10:59.056Z,9.93
2023-05-22T04:13:27.049Z,8.82
2023-05-22T04:15:53.760Z,8.95
2023-05-22T04:18:20.430Z,9.05
2023-05-22T04:20:47.056Z,8.93
2023-05-22T04:23:13.793Z,10.02
2023-05-22T04:25:40.413Z,9.48
2023-05-22T04:28:07.946Z,9.60
2023-05-22T04:30:37.373Z,9.50
2023-05-22T04:33:05.445Z,9.77
2023-05-22T04:35:32.445Z,9.32
2023-05-22T04:38:02.694Z,9.27
2023-05-22T04:40:33.247Z,10.02
2023-05-22T04:43:00.684Z,9.43
2023-05-22T04:45:28.754Z,9.32
2023-05-22T04:47:56.131Z,9.43
2023-05-22T04:50:23.764Z,8.85
2023-05-22T04:52:50.518Z,9.23
2023-05-22T04:55:17.367Z,9.05
2023-05-22T04:57:45.015Z,9.10
2023-05-22T05:00:14.166Z,9.35
2023-05-22T05:02:41.131Z,8.30
2023-05-22T05:05:08.513Z,8.43
2023-05-22T05:07:39.698Z,8.70
2023-05-22T05:10:07.286Z,9.27
2023-05-22T05:12:34.192Z,8.98
2023-05-22T05:15:01.043Z,8.65
2023-05-22T05:17:27.837Z,8.55
2023-05-22T05:19:54.636Z,9.13
2023-05-22T05:22:21.325Z,8.80
2023-05-22T05:24:48.054Z,8.40
2023-05-22T05:27:15.143Z,8.85
2023-05-22T05:29:42.391Z,8.02
2023-05-22T05:32:10.042Z,8.35
2023-05-22T05:34:36.696Z,7.82
2023-05-22T05:37:04.981Z,8.57
2023-05-22T05:39:31.625Z,8.13
2023-05-22T05:41:59.030Z,8.13
2023-05-22T05:44:25.777Z,7.90
2023-05-22T05:46:52.528Z,7.15
2023-05-22T05:49:19.924Z,6.93
2023-05-22T05:51:46.587Z,6.90
2023-05-22T05:54:13.215Z,6.72
2023-05-22T05:56:39.911Z,5.90
2023-05-22T05:59:06.583Z,5.75
2023-05-22T06:01:35.146Z,6.22
2023-05-22T06:04:03.379Z,6.10
2023-05-22T06:06:39.315Z,6.28
2023-05-22T06:09:06.738Z,6.10
2023-05-22T06:11:33.871Z,5.80
2023-05-22T06:14:05.573Z,5.90
2023-05-22T06:16:32.480Z,5.68
2023-05-22T06:18:59.810Z,6.15
2023-05-22T06:21:26.749Z,6.10
2023-05-22T06:23:53.486Z,5.85
2023-05-22T06:26:20.292Z,6.43
2023-05-22T06:28:47.345Z,6.15
2023-05-22T06:31:14.307Z,5.80
2023-05-22T06:33:43.001Z,5.97
2023-05-22T06:36:11.356Z,5.80
2023-05-22T06:38:39.082Z,5.70
2023-05-22T06:41:06.302Z,6.60
2023-05-22T06:43:32.944Z,6.13
2023-05-22T06:45:59.619Z,5.93
2023-05-22T06:48:26.302Z,5.82
2023-05-22T06:50:52.931Z,6.25
2023-05-22T06:53:19.638Z,6.22
2023-05-22T06:55:46.255Z,5.90
2023-05-22T06:58:13.329Z,5.80
2023-05-22T07:00:40.204Z,5.25
2023-05-22T07:03:08.257Z,5.20
2023-05-22T07:05:35.013Z,5.45
2023-05-22T07:08:01.821Z,5.28
2023-05-22T07:10:28.714Z,5.03
2023-05-22T07:12:55.442Z,5.18
2023-05-22T07:15:22.238Z,5.38
2023-05-22T07:17:49.223Z,5.72
2023-05-22T07:20:17.579Z,5.32
2023-05-22T07:22:44.251Z,5.22
2023-05-22T07:25:11.113Z,5.55
2023-05-22T07:27:37.862Z,5.60
2023-05-22T07:30:05.395Z,6.13
2023-05-22T07:32:32.101Z,5.78
2023-05-22T07:34:58.760Z,5.88
2023-05-22T07:37:25.421Z,5.90
2023-05-22T07:39:59.373Z,5.75
2023-05-22T07:42:27.197Z,5.75
2023-05-22T07:44:53.808Z,6.10
2023-05-22T07:47:20.513Z,5.75
2023-05-22T07:49:47.217Z,5.65
2023-05-22T07:52:13.861Z,6.00
2023-05-22T07:54:41.576Z,5.85
2023-05-22T07:57:09.105Z,5.68
2023-05-22T07:59:35.802Z,5.35
2023-05-22T08:02:02.754Z,6.25
2023-05-22T08:04:32.483Z,5.65
2023-05-22T08:06:59.242Z,6.00
2023-05-22T08:09:26.002Z,5.80
2023-05-22T08:11:52.826Z,6.13
2023-05-22T08:14:21.968Z,6.22
2023-05-22T08:16:49.040Z,5.80
2023-05-22T08:19:15.935Z,5.60
2023-05-22T08:21:42.617Z,6.25
2023-05-22T08:24:09.291Z,5.70
2023-05-22T08:26:36.024Z,5.78
2023-05-22T08:29:02.712Z,6.05
2023-05-22T08:31:29.556Z,6.00
2023-05-22T08:34:02.201Z,5.95
2023-05-22T08:36:31.498Z,6.07
2023-05-22T08:38:58.195Z,6.28
2023-05-22T08:41:24.955Z,6.22
2023-05-22T08:43:52.850Z,6.32
2023-05-22T08:46:20.024Z,6.10
2023-05-22T08:48:47.717Z,6.07
2023-05-22T08:51:19.854Z,6.55
2023-05-22T08:53:47.515Z,5.82
2023-05-22T08:56:14.741Z,6.38
2023-05-22T08:58:41.708Z,5.93
2023-05-22T09:01:09.396Z,6.50
2023-05-22T09:03:36.681Z,6.22
2023-05-22T09:06:04.493Z,6.45
2023-05-22T09:08:31.188Z,5.97
2023-05-22T09:10:59.076Z,6.82
2023-05-22T09:13:31.111Z,6.82
2023-05-22T09:16:09.588Z,6.80
2023-05-22T09:18:40.386Z,6.05
2023-05-22T09:21:21.700Z,6.25
2023-05-22T09:23:54.594Z,6.15
2023-05-22T09:26:21.382Z,6.28
2023-05-22T09:28:48.005Z,6.38
2023-05-22T09:31:14.977Z,5.80
2023-05-22T09:33:44.213Z,6.05
2023-05-22T09:36:11.066Z,5.78
2023-05-22T09:38:38.160Z,6.13
2023-05-22T09:41:05.664Z,5.72
2023-05-22T09:43:33.795Z,6.25
2023-05-22T09:46:06.778Z,6.13
2023-05-22T09:48:37.140Z,6.22
2023-05-22T09:51:05.026Z,6.20
2023-05-22T09:53:33.331Z,5.80
2023-05-22T09:56:01.904Z,5.90
2023-05-22T09:58:33.407Z,6.13
2023-05-22T10:01:01.163Z,6.35
2023-05-22T10:03:28.027Z,5.75
2023-05-22T10:05:58.689Z,6.03
2023-05-22T10:08:28.649Z,6.32
2023-05-22T10:10:55.766Z,6.50
2023-05-22T10:13:24.122Z,6.28
2023-05-22T10:15:51.198Z,6.38
2023-05-22T10:18:18.185Z,6.95
2023-05-22T10:20:46.919Z,6.70
2023-05-22T10:23:16.422Z,6.43
2023-05-22T10:25:44.480Z,7.00
2023-05-22T10:28:15.058Z,7.68
2023-05-22T10:31:06.518Z,6.88
2023-05-22T10:33:41.552Z,7.38
2023-05-22T10:36:16.635Z,7.32
2023-05-22T10:39:26.092Z,7.53
2023-05-22T10:41:53.569Z,7.43
2023-05-22T10:44:21.971Z,6.85
2023-05-22T10:46:51.746Z,7.65
2023-05-22T10:49:26.040Z,7.57
2023-05-22T10:51:58.725Z,8.05
2023-05-22T10:54:43.946Z,7.55
2023-05-22T10:57:16.378Z,7.82
2023-05-22T10:59:44.535Z,7.75
2023-05-22T11:02:31.223Z,7.65
2023-05-22T11:05:16.918Z,7.10
2023-05-22T11:07:43.519Z,7.03
2023-05-22T11:10:10.293Z,7.22
2023-05-22T11:12:37.327Z,7.13
2023-05-22T11:15:09.181Z,7.57
2023-05-22T11:17:44.947Z,7.38
2023-05-22T11:20:22.807Z,6.93
2023-05-22T11:22:59.412Z,6.95
2023-05-22T11:25:27.926Z,7.40
2023-05-22T11:27:55.987Z,6.85
2023-05-22T11:30:27.817Z,7.30
2023-05-22T11:32:54.715Z,7.20
2023-05-22T11:35:22.289Z,6.80
2023-05-22T11:37:52.016Z,7.30
2023-05-22T11:40:26.510Z,6.65
2023-05-22T11:42:54.123Z,6.93
2023-05-22T11:45:21.575Z,6.43
2023-05-22T11:47:48.785Z,6.65
2023-05-22T11:50:22.492Z,5.95
2023-05-22T11:52:53.914Z,6.72
2023-05-22T11:55:20.559Z,5.95
2023-05-22T11:57:47.948Z,6.20
2023-05-22T12:00:15.564Z,6.18
2023-05-22T12:02:48.847Z,6.40
2023-05-22T12:05:16.435Z,5.85
2023-05-22T12:07:43.610Z,6.57
2023-05-22T12:10:10.950Z,6.15
2023-05-22T12:12:38.451Z,6.18
2023-05-22T12:15:07.103Z,6.53
2023-05-22T12:17:37.322Z,5.85
2023-05-22T12:20:05.689Z,6.53
2023-05-22T12:22:32.529Z,5.60
2023-05-22T12:24:59.183Z,6.18
2023-05-22T12:27:33.023Z,6.25
2023-05-22T12:30:10.714Z,6.22
2023-05-22T12:32:40.600Z,5.85
2023-05-22T12:35:15.147Z,5.93
2023-05-22T12:37:51.364Z,6.22
2023-05-22T12:40:18.405Z,6.60
2023-05-22T12:42:45.391Z,6.82
2023-05-22T12:45:13.311Z,6.70
2023-05-22T12:47:40.118Z,6.40
2023-05-22T12:50:08.041Z,6.22
2023-05-22T12:52:35.775Z,6.68
2023-05-22T12:55:02.424Z,6.40
2023-05-22T12:57:29.223Z,6.38
2023-05-22T12:59:55.861Z,6.22
2023-05-22T13:02:22.541Z,5.75
2023-05-22T13:04:49.653Z,6.22
2023-05-22T13:07:16.340Z,6.10
2023-05-22T13:09:43.206Z,6.68
2023-05-22T13:12:11.065Z,6.28
2023-05-22T13:14:40.039Z,6.70
2023-05-22T13:17:06.810Z,6.70
2023-05-22T13:19:33.670Z,6.38
2023-05-22T13:22:00.456Z,6.60
2023-05-22T13:24:27.113Z,6.60
2023-05-22T13:26:53.710Z,6.75
2023-05-22T13:29:20.312Z,6.60
2023-05-22T13:31:46.908Z,6.40
2023-05-22T13:34:13.644Z,6.28
2023-05-22T13:36:40.306Z,6.72
2023-05-22T13:39:06.958Z,6.50
2023-05-22T13:41:33.676Z,6.40
2023-05-22T13:44:00.535Z,6.97
2023-05-22T13:46:27.221Z,6.82
2023-05-22T13:48:54.021Z,6.28
2023-05-22T13:51:20.693Z,6.47
2023-05-22T13:53:47.394Z,6.63
2023-05-22T13:56:14.056Z,6.63
2023-05-22T13:58:40.898Z,6.45
2023-05-22T14:01:07.619Z,7.13
2023-05-22T14:03:34.328Z,7.22
2023-05-22T14:06:01.258Z,7.10
2023-05-22T14:08:27.905Z,7.00
2023-05-22T14:10:54.715Z,7.25
2023-05-22T14:13:21.489Z,7.72
2023-05-22T14:15:48.325Z,7.60
2023-05-22T14:18:18.574Z,7.18
2023-05-22T14:20:46.193Z,6.93
2023-05-22T14:23:14.163Z,7.30
2023-05-22T14:25:42.757Z,7.18
2023-05-22T14:28:10.762Z,7.38
2023-05-22T14:30:37.807Z,7.55
2023-05-22T14:33:05.365Z,6.45
2023-05-22T14:35:32.514Z,7.28
2023-05-22T14:37:59.165Z,7.07
2023-05-22T14:40:25.878Z,6.97
2023-05-22T14:42:54.155Z,7.53
2023-05-22T14:45:21.371Z,8.50
2023-05-22T14:47:48.039Z,8.32
2023-05-22T14:50:19.733Z,10.18
2023-05-22T14:52:48.519Z,9.40
2023-05-22T14:55:15.798Z,9.45
2023-05-22T14:57:42.492Z,9.52
2023-05-22T15:00:10.766Z,9.55
2023-05-22T15:02:37.576Z,10.00
2023-05-22T15:05:05.347Z,9.35
2023-05-22T15:07:43.243Z,8.85
2023-05-22T15:10:11.397Z,8.57
2023-05-22T15:12:38.049Z,7.80
2023-05-22T15:15:05.206Z,8.20
2023-05-22T15:17:31.911Z,8.07
2023-05-22T15:19:58.542Z,6.78
2023-05-22T15:22:25.174Z,7.00
2023-05-22T15:25:14.769Z,6.10
2023-05-22T15:27:42.300Z,6.68
2023-05-22T15:30:09.857Z,6.03
2023-05-22T15:32:37.667Z,6.47
2023-05-22T15:35:06.121Z,6.05
2023-05-22T15:37:33.716Z,6.43
2023-05-22T15:40:01.712Z,5.45
2023-05-22T15:42:28.871Z,6.60
2023-05-22T15:44:55.743Z,6.07
2023-05-22T15:47:22.485Z,7.60
2023-05-22T15:49:49.200Z,7.68
2023-05-22T15:52:16.681Z,7.05
2023-05-22T15:54:43.345Z,7.28
2023-05-22T15:57:10.017Z,7.50
2023-05-22T15:59:36.822Z,7.90
2023-05-22T16:02:03.688Z,8.35
2023-05-22T16:04:31.720Z,8.10
2023-05-22T16:06:58.310Z,8.52
2023-05-22T16:09:24.938Z,8.68
2023-05-22T16:11:51.575Z,8.50
2023-05-22T16:14:18.248Z,8.35
2023-05-22T16:16:44.874Z,7.55
2023-05-22T16:19:11.587Z,7.88
2023-05-22T16:21:38.600Z,8.73
2023-05-22T16:24:06.789Z,9.05
2023-05-22T16:26:33.500Z,9.05
2023-05-22T16:29:00.182Z,9.05
2023-05-22T16:31:26.947Z,8.98
2023-05-22T16:33:53.582Z,7.75
2023-05-22T16:36:20.377Z,7.85
2023-05-22T16:38:47.024Z,6.78
2023-05-22T16:41:13.670Z,7.15
2023-05-22T16:43:40.312Z,7.30
2023-05-22T16:46:06.983Z,7.03
2023-05-22T16:48:33.621Z,6.68
2023-05-22T16:51:00.572Z,6.50
2023-05-22T16:53:27.260Z,6.18
2023-05-22T16:55:54.014Z,5.93
2023-05-22T16:58:21.594Z,5.63
2023-05-22T17:00:51.754Z,6.15
2023-05-22T17:03:19.393Z,5.70
2023-05-22T17:05:47.314Z,5.50
2023-05-22T17:08:13.942Z,5.55
2023-05-22T17:10:41.541Z,5.13
2023-05-22T17:13:08.483Z,4.43
2023-05-22T17:15:35.096Z,4.90
2023-05-22T17:18:04.057Z,5.43
2023-05-22T17:20:32.883Z,5.00
2023-05-22T17:22:59.599Z,4.57
2023-05-22T17:25:26.224Z,5.05
2023-05-22T17:27:52.855Z,5.45
2023-05-22T17:30:19.547Z,4.63
2023-05-22T17:32:46.410Z,4.15
2023-05-22T17:35:13.155Z,4.32
2023-05-22T17:37:39.774Z,4.70
2023-05-22T17:40:08.054Z,4.72
2023-05-22T17:42:35.838Z,5.00
2023-05-22T17:45:03.506Z,5.32
2023-05-22T17:47:30.340Z,4.53
2023-05-22T17:49:56.967Z,4.70
2023-05-22T17:52:23.585Z,5.22
2023-05-22T17:54:50.329Z,5.32
2023-05-22T17:57:17.016Z,5.13
2023-05-22T17:59:44.313Z,5.30
2023-05-22T18:02:11.193Z,5.57
2023-05-22T18:04:38.195Z,5.78
2023-05-22T18:07:05.334Z,5.50
2023-05-22T18:09:32.564Z,6.28
2023-05-22T18:12:01.443Z,6.28
2023-05-22T18:14:28.047Z,6.53
2023-05-22T18:16:54.913Z,6.57
2023-05-22T18:19:21.695Z,7.55
2023-05-22T18:21:48.346Z,7.50
2023-05-22T18:24:15.168Z,7.22
2023-05-22T18:26:41.765Z,7.65
2023-05-22T18:29:08.392Z,8.02
2023-05-22T18:31:35.044Z,7.78
2023-05-22T18:34:01.650Z,8.05
2023-05-22T18:36:28.244Z,8.15
2023-05-22T18:38:55.318Z,8.52
2023-05-22T18:41:21.977Z,9.02
2023-05-22T18:43:48.616Z,9.40
2023-05-22T18:46:17.663Z,9.70
2023-05-22T18:48:44.301Z,10.48
2023-05-22T18:51:10.944Z,10.38
2023-05-22T18:53:37.596Z,11.02
2023-05-22T18:56:04.297Z,9.77
2023-05-22T18:58:31.021Z,9.60
2023-05-22T19:00:57.753Z,10.18
2023-05-22T19:03:24.586Z,9.43
2023-05-22T19:05:51.269Z,10.00
2023-05-22T19:08:18.023Z,9.40
2023-05-22T19:10:44.786Z,9.10
2023-05-22T19:13:11.433Z,10.25
2023-05-22T19:15:38.236Z,10.23
2023-05-22T19:18:05.058Z,11.18
2023-05-22T19:20:31.697Z,10.30
2023-05-22T19:22:58.387Z,9.85
2023-05-22T19:25:25.183Z,9.60
2023-05-22T19:27:52.126Z,10.02
2023-05-22T19:30:18.957Z,9.73
2023-05-22T19:32:45.795Z,9.15
2023-05-22T19:35:12.554Z,9.52
2023-05-22T19:37:39.208Z,10.07
2023-05-22T19:40:07.008Z,10.27
2023-05-22T19:42:34.311Z,10.98
2023-05-22T19:45:02.479Z,10.30
2023-05-22T19:47:29.233Z,10.68
2023-05-22T19:49:56.015Z,11.57
2023-05-22T19:52:22.745Z,12.00
2023-05-22T19:54:49.468Z,13.55
2023-05-22T19:57:16.120Z,14.18
2023-05-22T19:59:42.915Z,15.48
2023-05-22T20:02:09.633Z,16.38
2023-05-22T20:04:38.716Z,17.70
2023-05-22T20:07:07.148Z,19.05
2023-05-22T20:09:33.802Z,18.40
2023-05-22T20:12:00.525Z,18.52
2023-05-22T20:14:27.196Z,20.92
2023-05-22T20:16:54.406Z,19.35
2023-05-22T20:19:24.080Z,19.23
2023-05-22T20:21:51.836Z,20.17
2023-05-22T20:24:20.818Z,24.42
2023-05-22T20:26:47.766Z,24.40
2023-05-22T20:29:14.706Z,25.67
2023-05-22T20:31:41.542Z,26.67
2023-05-22T20:34:09.431Z,29.35
2023-05-22T20:36:36.439Z,29.20
2023-05-22T20:39:03.397Z,34.05
2023-05-22T20:41:30.060Z,35.17
2023-05-22T20:43:58.471Z,34.85
2023-05-22T20:46:26.569Z,37.00
2023-05-22T20:48:54.001Z,38.83
2023-05-22T20:51:21.489Z,39.97
2023-05-22T20:53:50.092Z,40.92
2023-05-22T20:56:16.726Z,39.33
2023-05-22T20:58:43.350Z,38.75
2023-05-22T21:01:10.059Z,40.60
2023-05-22T21:03:37.116Z,42.05
2023-05-22T21:06:03.873Z,41.47
2023-05-22T21:08:30.515Z,43.00
2023-05-22T21:10:57.248Z,42.47
2023-05-22T21:13:23.918Z,41.95
2023-05-22T21:15:50.687Z,39.22
2023-05-22T21:18:19.605Z,40.72
2023-05-22T21:20:46.593Z,40.88
2023-05-22T21:23:13.271Z,41.28
2023-05-22T21:25:39.927Z,41.15
2023-05-22T21:28:07.700Z,39.00
2023-05-22T21:30:34.492Z,37.78
2023-05-22T21:33:01.290Z,40.92
2023-05-22T21:35:27.947Z,39.10
2023-05-22T21:37:54.705Z,39.95
2023-05-22T21:40:21.361Z,40.55
2023-05-22T21:42:47.995Z,37.95
2023-05-22T21:45:15.097Z,40.58
2023-05-22T21:47:41.743Z,41.50
2023-05-22T21:50:10.033Z,41.70
2023-05-22T21:52:36.759Z,41.50
2023-05-22T21:55:03.856Z,42.50
2023-05-22T21:57:30.693Z,40.80
2023-05-22T21:59:57.444Z,40.92
2023-05-22T22:02:24.536Z,43.63
2023-05-22T22:04:51.371Z,47.20
2023-05-22T22:07:18.015Z,38.85
2023-05-22T22:09:44.654Z,35.13
2023-05-22T22:12:11.650Z,31.73
2023-05-22T22:14:38.368Z,29.95
2023-05-22T22:17:08.946Z,29.77
2023-05-22T22:19:36.017Z,26.40
2023-05-22T22:22:03.038Z,25.27
2023-05-22T22:24:29.957Z,23.60
2023-05-22T22:26:56.641Z,23.05
2023-05-22T22:29:23.455Z,21.95
2023-05-22T22:31:50.209Z,19.58
2023-05-22T22:34:16.946Z,18.55
2023-05-22T22:36:43.578Z,17.20
2023-05-22T22:39:11.064Z,16.23
2023-05-22T22:41:37.829Z,15.50
2023-05-22T22:44:04.511Z,14.95
2023-05-22T22:46:31.220Z,16.15
2023-05-22T22:49:01.556Z,16.05
2023-05-22T22:51:30.700Z,14.82
2023-05-22T22:53:58.236Z,14.13
2023-05-22T22:56:29.114Z,14.55
2023-05-22T22:58:57.017Z,14.15
2023-05-22T23:01:24.102Z,14.38
2023-05-22T23:03:51.252Z,14.00
2023-05-22T23:06:18.341Z,14.45
2023-05-22T23:08:45.629Z,16.15
2023-05-22T23:11:12.365Z,15.30
2023-05-22T23:13:41.085Z,15.25
2023-05-22T23:16:08.198Z,15.45
2023-05-22T23:18:35.254Z,18.00
2023-05-22T23:21:01.904Z,15.13
2023-05-22T23:23:28.496Z,16.05
2023-05-22T23:25:57.300Z,16.40
2023-05-22T23:28:25.522Z,17.25
2023-05-22T23:30:52.752Z,17.65
2023-05-22T23:33:19.447Z,17.25
2023-05-22T23:35:46.136Z,17.80
2023-05-22T23:38:12.770Z,17.23
2023-05-22T23:40:39.416Z,17.83
2023-05-22T23:43:06.071Z,19.73
2023-05-22T23:45:32.657Z,19.48
2023-05-22T23:47:59.334Z,19.38
2023-05-22T23:50:26.000Z,19.10
2023-05-22T23:52:52.812Z,19.45
2023-05-22T23:55:19.598Z,19.63
2023-05-22T23:57:46.569Z,18.73
